createdAt,value
2023-04-27T00:01:55.038Z,4.47
2023-04-27T00:04:22.263Z,3.90
2023-04-27T00:06:49.355Z,4.25
2023-04-27T00:09:16.506Z,4.10
2023-04-27T00:11:43.563Z,4.40
2023-04-27T00:14:10.509Z,3.78
2023-04-27T00:16:37.452Z,3.90
2023-04-27T00:19:04.546Z,2.90
2023-04-27T00:21:32.221Z,2.90
2023-04-27T00:23:59.131Z,2.87
2023-04-27T00:26:26.980Z,2.80
2023-04-27T00:28:53.889Z,3.10
2023-04-27T00:31:21.054Z,2.83
2023-04-27T00:33:47.942Z,3.22
2023-04-27T00:38:41.487Z,2.95
2023-04-27T00:41:08.516Z,2.75
2023-04-27T00:43:43.800Z,2.80
2023-04-27T00:46:12.509Z,2.72
2023-04-27T00:48:39.742Z,3.00
2023-04-27T00:51:06.813Z,2.80
2023-04-27T00:53:34.538Z,2.70
2023-04-27T00:56:01.441Z,3.00
2023-04-27T00:58:28.314Z,2.80
2023-04-27T01:00:55.445Z,2.80
2023-04-27T01:03:23.160Z,2.83
2023-04-27T01:05:50.136Z,2.80
2023-04-27T01:08:16.988Z,3.03
2023-04-27T01:13:11.176Z,2.92
2023-04-27T01:15:38.365Z,3.15
2023-04-27T01:18:05.457Z,2.85
2023-04-27T01:20:32.572Z,2.80
2023-04-27T01:22:59.997Z,2.90
2023-04-27T01:25:27.426Z,2.85
2023-04-27T01:27:54.580Z,2.80
2023-04-27T01:30:22.828Z,2.97
2023-04-27T01:32:50.427Z,2.80
2023-04-27T01:35:17.546Z,2.80
2023-04-27T01:37:44.513Z,3.10
2023-04-27T01:40:13.260Z,3.08
2023-04-27T01:42:40.167Z,2.87
2023-04-27T01:45:07.582Z,2.62
2023-04-27T01:47:34.478Z,3.05
2023-04-27T01:52:28.457Z,2.80
2023-04-27T01:54:55.335Z,3.20
2023-04-27T01:57:22.202Z,2.80
2023-04-27T02:02:15.788Z,2.78
2023-04-27T02:04:43.651Z,2.58
2023-04-27T02:07:11.121Z,2.90
2023-04-27T02:09:38.275Z,2.60
2023-04-27T02:12:05.420Z,2.80
2023-04-27T02:14:32.312Z,2.85
2023-04-27T02:16:59.206Z,2.90
2023-04-27T02:19:26.349Z,2.80
2023-04-27T02:21:53.355Z,2.72
2023-04-27T02:24:20.261Z,2.53
2023-04-27T02:29:14.019Z,2.53
2023-04-27T02:31:41.584Z,2.83
2023-04-27T02:34:08.499Z,3.00
2023-04-27T02:39:02.113Z,2.70
2023-04-27T02:41:32.384Z,2.95
2023-04-27T02:43:59.261Z,3.17
2023-04-27T02:46:27.313Z,2.55
2023-04-27T02:48:54.530Z,2.60
2023-04-27T02:51:21.418Z,3.55
2023-04-27T02:53:48.406Z,2.83
2023-04-27T02:56:15.248Z,2.85
2023-04-27T03:01:09.872Z,2.70
2023-04-27T03:03:37.094Z,2.80
2023-04-27T03:06:04.340Z,3.08
2023-04-27T03:08:31.247Z,3.03
2023-04-27T03:10:58.102Z,2.90
2023-04-27T03:15:51.646Z,2.50
2023-04-27T03:20:45.171Z,2.92
2023-04-27T03:25:39.164Z,2.80
2023-04-27T03:28:06.855Z,3.05
2023-04-27T03:30:33.731Z,2.97
2023-04-27T03:35:27.710Z,2.80
2023-04-27T03:37:54.675Z,3.78
2023-04-27T03:40:21.769Z,3.12
2023-04-27T03:42:48.616Z,3.42
2023-04-27T03:47:43.683Z,3.30
2023-04-27T03:50:10.679Z,3.28
2023-04-27T03:52:37.611Z,3.25
2023-04-27T03:55:05.561Z,3.20
2023-04-27T03:57:32.444Z,3.10
2023-04-27T04:02:26.144Z,3.08
2023-04-27T04:04:53.168Z,3.60
2023-04-27T04:07:20.959Z,3.45
2023-04-27T04:09:47.878Z,3.55
2023-04-27T04:12:14.716Z,3.33
2023-04-27T04:17:11.055Z,3.37
2023-04-27T04:19:38.017Z,3.97
2023-04-27T04:22:05.111Z,3.60
2023-04-27T04:24:32.051Z,3.22
2023-04-27T04:26:58.994Z,3.40
2023-04-27T04:29:25.922Z,3.35
2023-04-27T04:31:52.958Z,3.37
2023-04-27T04:34:20.234Z,4.00
2023-04-27T04:36:47.121Z,3.50
2023-04-27T04:39:14.205Z,4.20
2023-04-27T04:41:41.197Z,3.53
2023-04-27T04:44:08.118Z,3.40
2023-04-27T04:46:35.253Z,3.83
2023-04-27T04:49:02.762Z,3.20
2023-04-27T04:51:29.680Z,3.17
2023-04-27T04:53:56.820Z,3.92
2023-04-27T04:56:23.898Z,3.33
2023-04-27T04:58:50.779Z,3.40
2023-04-27T05:01:17.821Z,3.22
2023-04-27T05:03:44.800Z,2.75
2023-04-27T05:06:12.033Z,3.00
2023-04-27T05:08:39.005Z,4.45
2023-04-27T05:11:05.899Z,7.12
2023-04-27T05:13:32.740Z,4.70
2023-04-27T05:15:59.687Z,4.28
2023-04-27T05:18:26.603Z,4.20
2023-04-27T05:20:53.442Z,4.82
2023-04-27T05:23:20.301Z,4.07
2023-04-27T05:25:47.188Z,5.60
2023-04-27T05:28:14.110Z,4.50
2023-04-27T05:30:41.020Z,4.90
2023-04-27T05:33:07.957Z,5.70
2023-04-27T05:35:35.085Z,5.00
2023-04-27T05:38:02.264Z,4.37
2023-04-27T05:40:29.528Z,4.03
2023-04-27T05:42:56.663Z,4.03
2023-04-27T05:45:23.632Z,4.30
2023-04-27T05:47:50.652Z,3.60
2023-04-27T05:50:17.612Z,3.05
2023-04-27T05:52:44.473Z,3.08
2023-04-27T05:55:11.362Z,3.12
2023-04-27T05:57:38.287Z,3.05
2023-04-27T06:00:10.525Z,3.08
2023-04-27T06:02:37.526Z,3.33
2023-04-27T06:05:04.797Z,3.00
2023-04-27T06:07:31.909Z,2.80
2023-04-27T06:09:58.981Z,3.17
2023-04-27T06:12:25.897Z,2.58
2023-04-27T06:14:52.759Z,3.10
2023-04-27T06:17:19.625Z,3.12
2023-04-27T06:19:46.608Z,2.67
2023-04-27T06:22:13.442Z,2.60
2023-04-27T06:24:40.278Z,2.35
2023-04-27T06:27:07.245Z,2.83
2023-04-27T06:29:34.147Z,2.97
2023-04-27T06:32:01.952Z,2.53
2023-04-27T06:34:29.131Z,2.67
2023-04-27T06:36:56.180Z,3.00
2023-04-27T06:39:23.172Z,2.55
2023-04-27T06:41:50.054Z,2.87
2023-04-27T06:44:16.957Z,2.45
2023-04-27T06:46:43.856Z,3.28
2023-04-27T06:49:11.080Z,2.20
2023-04-27T06:51:38.012Z,2.37
2023-04-27T06:54:05.081Z,2.58
2023-04-27T06:56:32.030Z,3.10
2023-04-27T06:58:59.974Z,2.78
2023-04-27T07:01:26.882Z,2.50
2023-04-27T07:03:53.980Z,2.58
2023-04-27T07:06:22.384Z,2.53
2023-04-27T07:08:49.269Z,2.53
2023-04-27T07:11:16.648Z,2.42
2023-04-27T07:13:43.902Z,2.05
2023-04-27T07:16:10.879Z,2.08
2023-04-27T07:18:37.772Z,2.00
2023-04-27T07:21:04.677Z,2.15
2023-04-27T07:23:32.075Z,2.10
2023-04-27T07:25:59.386Z,2.08
2023-04-27T07:28:26.305Z,1.65
2023-04-27T07:30:53.211Z,2.28
2023-04-27T07:33:20.104Z,2.97
2023-04-27T07:35:47.008Z,2.50
2023-04-27T07:38:13.887Z,2.03
2023-04-27T07:40:42.100Z,2.42
2023-04-27T07:43:10.418Z,2.25
2023-04-27T07:45:39.499Z,1.80
2023-04-27T07:48:06.688Z,1.73
2023-04-27T07:50:33.699Z,2.45
2023-04-27T07:53:00.575Z,2.00
2023-04-27T07:55:27.616Z,1.90
2023-04-27T07:57:55.327Z,1.90
2023-04-27T08:00:23.178Z,2.05
2023-04-27T08:02:51.013Z,1.98
2023-04-27T08:05:18.408Z,2.20
2023-04-27T08:07:46.076Z,2.00
2023-04-27T08:10:13.381Z,1.80
2023-04-27T08:12:40.306Z,2.15
2023-04-27T08:15:07.875Z,2.12
2023-04-27T08:17:35.271Z,2.20
2023-04-27T08:20:02.227Z,2.28
2023-04-27T08:22:29.156Z,2.20
2023-04-27T08:24:56.036Z,2.17
2023-04-27T08:27:22.891Z,1.90
2023-04-27T08:29:49.804Z,2.10
2023-04-27T08:32:16.859Z,2.75
2023-04-27T08:34:45.103Z,1.87
2023-04-27T08:37:12.078Z,2.20
2023-04-27T08:39:39.051Z,1.80
2023-04-27T08:42:12.763Z,1.90
2023-04-27T08:44:44.016Z,2.03
2023-04-27T08:47:11.388Z,2.30
2023-04-27T08:49:44.475Z,2.37
2023-04-27T08:52:14.633Z,2.08
2023-04-27T08:54:41.743Z,2.00
2023-04-27T08:57:13.150Z,2.10
2023-04-27T08:59:45.448Z,2.00
2023-04-27T09:02:21.827Z,2.35
2023-04-27T09:04:48.943Z,2.55
2023-04-27T09:07:17.634Z,2.40
2023-04-27T09:09:45.673Z,1.92
2023-04-27T09:12:22.065Z,2.50
2023-04-27T09:14:58.254Z,2.15
2023-04-27T09:17:28.016Z,2.20
2023-04-27T09:20:13.586Z,2.50
2023-04-27T09:22:45.774Z,2.58
2023-04-27T09:25:30.219Z,2.25
2023-04-27T09:27:58.506Z,2.30
2023-04-27T09:30:26.581Z,2.10
2023-04-27T09:32:58.060Z,2.42
2023-04-27T09:35:30.085Z,2.60
2023-04-27T09:37:57.001Z,2.05
2023-04-27T09:40:30.844Z,2.50
2023-04-27T09:43:01.301Z,2.30
2023-04-27T09:45:28.398Z,2.08
2023-04-27T09:47:55.410Z,2.50
2023-04-27T09:50:22.342Z,1.90
2023-04-27T09:52:49.383Z,2.22
2023-04-27T09:55:27.803Z,2.00
2023-04-27T09:58:28.634Z,2.37
2023-04-27T10:01:20.332Z,1.70
2023-04-27T10:04:06.146Z,2.17
2023-04-27T10:07:01.930Z,2.30
2023-04-27T10:09:36.134Z,2.67
2023-04-27T10:12:19.665Z,2.28
2023-04-27T10:14:51.512Z,2.50
2023-04-27T10:17:19.027Z,2.75
2023-04-27T10:20:18.142Z,2.40
2023-04-27T10:22:46.712Z,2.12
2023-04-27T10:25:19.847Z,2.65
2023-04-27T10:27:57.024Z,2.10
2023-04-27T10:32:55.191Z,2.17
2023-04-27T10:35:23.459Z,1.92
2023-04-27T10:37:52.201Z,2.53
2023-04-27T10:40:19.342Z,2.40
2023-04-27T10:42:49.630Z,2.60
2023-04-27T10:45:30.210Z,2.22
2023-04-27T10:48:00.606Z,2.40
2023-04-27T10:50:28.058Z,2.78
2023-04-27T10:52:54.954Z,3.22
2023-04-27T10:55:23.253Z,2.70
2023-04-27T10:57:54.293Z,2.60
2023-04-27T11:00:26.907Z,2.30
2023-04-27T11:02:55.213Z,2.40
2023-04-27T11:05:25.388Z,2.50
2023-04-27T11:07:53.121Z,2.53
2023-04-27T11:10:20.524Z,2.40
2023-04-27T11:12:47.537Z,2.28
2023-04-27T11:15:14.487Z,1.95
2023-04-27T11:17:41.893Z,2.90
2023-04-27T11:20:09.891Z,2.33
2023-04-27T11:22:46.504Z,2.55
2023-04-27T11:25:13.394Z,2.42
2023-04-27T11:27:42.011Z,2.67
2023-04-27T11:30:23.212Z,2.78
2023-04-27T11:32:50.978Z,3.37
2023-04-27T11:35:21.286Z,2.60
2023-04-27T11:37:58.432Z,2.45
2023-04-27T11:43:04.340Z,2.37
2023-04-27T11:45:31.294Z,2.47
2023-04-27T11:47:59.238Z,2.78
2023-04-27T11:50:26.855Z,2.40
2023-04-27T11:52:53.753Z,2.90
2023-04-27T11:55:22.263Z,2.97
2023-04-27T11:57:49.357Z,2.90
2023-04-27T12:00:16.780Z,2.90
2023-04-27T12:02:44.414Z,2.80
2023-04-27T12:05:13.454Z,2.97
2023-04-27T12:07:41.437Z,2.20
2023-04-27T12:10:09.187Z,2.83
2023-04-27T12:12:36.402Z,2.50
2023-04-27T12:15:03.750Z,2.45
2023-04-27T12:17:30.669Z,2.50
2023-04-27T12:19:57.601Z,2.67
2023-04-27T12:22:24.512Z,2.70
2023-04-27T12:24:51.709Z,2.50
2023-04-27T12:27:18.581Z,2.50
2023-04-27T12:29:45.573Z,2.60
2023-04-27T12:32:12.510Z,2.92
2023-04-27T12:34:39.685Z,2.80
2023-04-27T12:37:07.204Z,2.40
2023-04-27T12:39:34.483Z,2.97
2023-04-27T12:42:02.454Z,2.65
2023-04-27T12:44:29.660Z,2.90
2023-04-27T12:46:56.885Z,2.47
2023-04-27T12:49:23.767Z,2.78
2023-04-27T12:51:52.148Z,2.58
2023-04-27T12:54:19.076Z,2.80
2023-04-27T12:56:46.051Z,2.70
2023-04-27T12:59:14.001Z,2.55
2023-04-27T13:01:40.938Z,3.30
2023-04-27T13:04:08.147Z,3.70
2023-04-27T13:06:35.260Z,3.00
2023-04-27T13:09:08.888Z,2.67
2023-04-27T13:11:35.835Z,2.80
2023-04-27T13:14:02.717Z,2.83
2023-04-27T13:16:29.643Z,2.40
2023-04-27T13:18:56.736Z,2.45
2023-04-27T13:21:23.679Z,2.60
2023-04-27T13:23:51.341Z,2.70
2023-04-27T13:26:18.272Z,2.85
2023-04-27T13:28:45.136Z,2.72
2023-04-27T13:31:12.072Z,2.95
2023-04-27T13:33:43.711Z,2.95
2023-04-27T13:36:12.197Z,3.67
2023-04-27T13:38:39.489Z,2.67
2023-04-27T13:41:06.904Z,2.55
2023-04-27T13:43:33.911Z,3.00
2023-04-27T13:46:02.623Z,2.78
2023-04-27T13:48:30.603Z,2.75
2023-04-27T13:50:58.034Z,2.90
2023-04-27T13:53:28.131Z,2.75
2023-04-27T13:55:56.116Z,2.70
2023-04-27T13:58:25.792Z,2.37
2023-04-27T14:00:53.812Z,2.60
2023-04-27T14:03:21.727Z,2.62
2023-04-27T14:05:50.945Z,3.03
2023-04-27T14:08:18.298Z,2.83
2023-04-27T14:10:46.059Z,2.83
2023-04-27T14:13:13.258Z,2.80
2023-04-27T14:15:40.604Z,3.25
2023-04-27T14:18:08.745Z,2.50
2023-04-27T14:20:36.504Z,2.85
2023-04-27T14:23:05.255Z,3.12
2023-04-27T14:25:35.428Z,3.00
2023-04-27T14:28:10.825Z,3.15
2023-04-27T14:30:37.702Z,2.80
2023-04-27T14:33:07.104Z,2.75
2023-04-27T14:35:34.972Z,2.80
2023-04-27T14:38:33.888Z,3.20
2023-04-27T14:41:01.938Z,2.85
2023-04-27T14:43:28.876Z,2.87
2023-04-27T14:46:04.848Z,2.80
2023-04-27T14:48:54.439Z,2.25
2023-04-27T14:51:21.690Z,2.80
2023-04-27T14:53:48.617Z,2.80
2023-04-27T14:56:15.610Z,3.67
2023-04-27T14:58:42.474Z,3.05
2023-04-27T15:01:09.421Z,2.80
2023-04-27T15:03:36.520Z,2.60
2023-04-27T15:06:03.704Z,3.20
2023-04-27T15:08:32.076Z,2.90
2023-04-27T15:11:01.394Z,3.00
2023-04-27T15:13:28.370Z,2.70
2023-04-27T15:15:56.664Z,2.70
2023-04-27T15:18:25.873Z,2.70
2023-04-27T15:20:56.671Z,2.42
2023-04-27T15:23:24.782Z,2.70
2023-04-27T15:25:55.540Z,2.83
2023-04-27T15:28:33.961Z,2.37
2023-04-27T15:31:00.871Z,2.30
2023-04-27T15:33:27.747Z,2.60
2023-04-27T15:35:55.057Z,2.47
2023-04-27T15:38:28.219Z,2.53
2023-04-27T15:40:55.067Z,2.37
2023-04-27T15:43:22.079Z,2.40
2023-04-27T15:45:49.542Z,2.45
2023-04-27T15:48:16.663Z,2.33
2023-04-27T15:50:45.110Z,2.30
2023-04-27T15:53:12.191Z,2.65
2023-04-27T15:55:39.081Z,2.50
2023-04-27T15:58:06.056Z,2.33
2023-04-27T16:00:33.017Z,2.65
2023-04-27T16:03:00.656Z,2.75
2023-04-27T16:05:27.759Z,2.42
2023-04-27T16:07:55.612Z,2.20
2023-04-27T16:10:22.460Z,2.70
2023-04-27T16:12:49.328Z,2.58
2023-04-27T16:15:16.334Z,2.45
2023-04-27T16:17:43.196Z,2.53
2023-04-27T16:20:10.255Z,2.62
2023-04-27T16:22:37.774Z,2.53
2023-04-27T16:25:10.534Z,2.45
2023-04-27T16:27:38.554Z,2.58
2023-04-27T16:30:08.246Z,2.35
2023-04-27T16:32:35.646Z,2.67
2023-04-27T16:35:03.803Z,2.47
2023-04-27T16:37:30.767Z,2.55
2023-04-27T16:40:01.519Z,2.62
2023-04-27T16:42:28.778Z,2.70
2023-04-27T16:44:55.901Z,2.12
2023-04-27T16:47:22.976Z,2.28
2023-04-27T16:49:51.413Z,2.35
2023-04-27T16:52:18.856Z,2.10
2023-04-27T16:54:46.105Z,2.55
2023-04-27T16:57:13.429Z,2.50
2023-04-27T16:59:48.327Z,2.35
2023-04-27T17:02:24.558Z,2.25
2023-04-27T17:04:53.151Z,2.70
2023-04-27T17:07:20.188Z,2.60
2023-04-27T17:09:53.267Z,2.50
2023-04-27T17:12:20.179Z,2.67
2023-04-27T17:14:47.038Z,2.80
2023-04-27T17:17:13.926Z,2.20
2023-04-27T17:19:42.145Z,2.30
2023-04-27T17:22:11.453Z,2.55
2023-04-27T17:24:38.285Z,2.40
2023-04-27T17:27:05.195Z,2.47
2023-04-27T17:29:33.047Z,2.30
2023-04-27T17:31:59.907Z,2.53
2023-04-27T17:34:26.790Z,2.40
2023-04-27T17:36:53.727Z,2.42
2023-04-27T17:39:22.763Z,2.22
2023-04-27T17:41:49.688Z,2.37
2023-04-27T17:44:16.805Z,2.30
2023-04-27T17:46:48.053Z,2.60
2023-04-27T17:49:16.422Z,2.50
2023-04-27T17:51:44.286Z,2.30
2023-04-27T17:54:11.757Z,2.47
2023-04-27T17:56:39.447Z,2.40
2023-04-27T17:59:07.820Z,2.30
2023-04-27T18:01:34.892Z,2.10
2023-04-27T18:04:04.225Z,2.30
2023-04-27T18:06:32.177Z,2.45
2023-04-27T18:08:59.080Z,2.50
2023-04-27T18:11:26.032Z,2.50
2023-04-27T18:13:54.672Z,2.33
2023-04-27T18:16:21.796Z,2.50
2023-04-27T18:18:48.690Z,2.53
2023-04-27T18:21:15.556Z,2.40
2023-04-27T18:23:42.836Z,2.70
2023-04-27T18:26:11.539Z,2.60
2023-04-27T18:28:40.291Z,3.00
2023-04-27T18:31:17.710Z,3.55
2023-04-27T18:33:47.617Z,3.80
2023-04-27T18:36:14.583Z,3.65
2023-04-27T18:38:41.493Z,2.80
2023-04-27T18:41:08.497Z,2.70
2023-04-27T18:43:37.788Z,3.33
2023-04-27T18:46:05.051Z,3.05
2023-04-27T18:48:32.626Z,2.85
2023-04-27T18:50:59.585Z,3.10
2023-04-27T18:53:27.474Z,3.47
2023-04-27T18:55:54.380Z,3.15
2023-04-27T18:58:21.675Z,3.80
2023-04-27T19:00:48.638Z,3.55
2023-04-27T19:03:15.868Z,8.15
2023-04-27T19:05:43.195Z,15.80
2023-04-27T19:08:10.440Z,16.80
2023-04-27T19:10:38.399Z,24.75
2023-04-27T19:13:05.259Z,34.45
2023-04-27T19:15:32.127Z,41.05
2023-04-27T19:18:06.914Z,36.53
2023-04-27T19:20:37.439Z,27.23
2023-04-27T19:23:05.386Z,28.52
2023-04-27T19:25:32.334Z,26.70
2023-04-27T19:27:59.277Z,23.55
2023-04-27T19:30:26.285Z,21.87
2023-04-27T19:32:53.287Z,22.42
2023-04-27T19:35:20.602Z,22.30
2023-04-27T19:37:47.519Z,23.52
2023-04-27T19:40:15.091Z,20.02
2023-04-27T19:42:41.958Z,19.15
2023-04-27T19:45:08.973Z,19.10
2023-04-27T19:47:36.146Z,21.20
2023-04-27T19:50:04.952Z,20.25
2023-04-27T19:52:31.841Z,19.02
2023-04-27T19:55:00.070Z,16.25
2023-04-27T19:57:26.942Z,12.55
2023-04-27T19:59:53.831Z,13.27
2023-04-27T20:02:21.691Z,20.48
2023-04-27T20:04:48.986Z,15.32
2023-04-27T20:07:16.128Z,13.13
2023-04-27T20:09:43.066Z,11.82
2023-04-27T20:12:23.718Z,14.20
2023-04-27T20:14:56.329Z,12.60
2023-04-27T20:17:25.792Z,13.85
2023-04-27T20:19:56.613Z,15.45
2023-04-27T20:22:24.071Z,13.05
2023-04-27T20:24:51.229Z,14.95
2023-04-27T20:27:18.229Z,13.55
2023-04-27T20:29:47.274Z,11.05
2023-04-27T20:32:14.157Z,8.65
2023-04-27T20:34:41.075Z,7.95
2023-04-27T20:37:08.000Z,6.60
2023-04-27T20:39:35.211Z,5.97
2023-04-27T20:42:02.198Z,5.35
2023-04-27T20:44:29.079Z,4.62
2023-04-27T20:46:56.180Z,4.78
2023-04-27T20:49:32.014Z,4.47
2023-04-27T20:52:02.328Z,4.12
2023-04-27T20:54:32.898Z,5.18
2023-04-27T20:57:03.876Z,4.32
2023-04-27T20:59:30.741Z,4.80
2023-04-27T21:01:57.719Z,4.78
2023-04-27T21:04:24.660Z,4.28
2023-04-27T21:06:51.597Z,4.30
2023-04-27T21:11:45.178Z,4.25
2023-04-27T21:14:12.052Z,4.45
2023-04-27T21:16:38.944Z,6.07
2023-04-27T21:19:05.882Z,7.53
2023-04-27T21:21:32.755Z,6.15
2023-04-27T21:24:07.371Z,6.60
2023-04-27T21:26:46.277Z,10.73
2023-04-27T21:29:13.184Z,13.00
2023-04-27T21:31:40.176Z,17.45
2023-04-27T21:34:07.099Z,12.20
2023-04-27T21:36:34.093Z,10.00
2023-04-27T21:39:01.109Z,11.82
2023-04-27T21:41:27.964Z,13.62
2023-04-27T21:43:54.845Z,12.88
2023-04-27T21:46:23.418Z,10.73
2023-04-27T21:48:50.342Z,5.40
2023-04-27T21:51:17.264Z,5.12
2023-04-27T21:53:44.093Z,4.35
2023-04-27T21:58:37.871Z,4.37
2023-04-27T22:01:04.801Z,4.50
2023-04-27T22:03:32.807Z,4.37
2023-04-27T22:05:59.833Z,3.35
2023-04-27T22:08:26.748Z,5.10
2023-04-27T22:10:53.683Z,4.50
2023-04-27T22:13:20.622Z,4.80
2023-04-27T22:15:48.421Z,4.25
2023-04-27T22:18:15.792Z,4.05
2023-04-27T22:20:43.050Z,3.70
2023-04-27T22:23:10.220Z,3.12
2023-04-27T22:25:37.146Z,4.12
2023-04-27T22:28:04.154Z,3.67
2023-04-27T22:30:31.296Z,4.22
2023-04-27T22:32:58.320Z,3.87
2023-04-27T22:35:27.545Z,3.80
2023-04-27T22:37:58.171Z,4.07
2023-04-27T22:40:25.214Z,3.78
2023-04-27T22:42:53.586Z,4.37
2023-04-27T22:45:20.512Z,4.05
2023-04-27T22:47:47.508Z,3.72
2023-04-27T22:50:14.518Z,5.30
2023-04-27T22:52:44.691Z,3.78
2023-04-27T22:55:12.871Z,3.72
2023-04-27T22:57:40.446Z,3.50
2023-04-27T23:00:14.042Z,4.03
2023-04-27T23:02:41.760Z,4.00
2023-04-27T23:05:10.963Z,4.20
2023-04-27T23:07:38.521Z,4.18
2023-04-27T23:10:06.191Z,5.28
2023-04-27T23:12:33.712Z,4.72
2023-04-27T23:15:00.736Z,3.90
2023-04-27T23:17:31.170Z,4.62
2023-04-27T23:19:59.609Z,5.30
2023-04-27T23:22:27.253Z,3.97
2023-04-27T23:24:54.640Z,4.30
2023-04-27T23:27:22.666Z,4.00
2023-04-27T23:29:49.532Z,4.43
2023-04-27T23:34:43.113Z,4.45
2023-04-27T23:37:10.028Z,5.47
2023-04-27T23:39:36.861Z,4.60
2023-04-27T23:44:30.572Z,4.20
2023-04-27T23:46:57.621Z,4.10
2023-04-27T23:49:24.581Z,3.45
2023-04-27T23:51:52.800Z,4.15
2023-04-27T23:54:19.755Z,4.43
2023-04-27T23:56:47.334Z,4.28
2023-04-27T23:59:15.170Z,4.70
